Time,TemperatureF,DewpointF,PressureIn,WindDirection,WindDirectionDegrees,WindSpeedMPH,WindSpeedGustMPH,Humidity,HourlyPrecipIn,Conditions,Clouds,dailyrainin,SolarRadiationWatts/m^2,SoftwareType,DateUTC
2013-01-17 00:05:00,39.0,38.0,-100.00,North,352,1.0,2.0,97,0.00,,,0.65,0.000000,,2013-01-17 05:05:00,
2013-01-17 00:12:00,39.0,38.0,-100.00,North,352,1.0,2.0,97,0.00,,,0.65,0.000000,,2013-01-17 05:12:00,
2013-01-17 00:33:00,39.0,38.0,-100.00,WNW,293,1.0,4.0,97,0.00,,,0.54,0.000000,,2013-01-17 05:33:00,
2013-01-17 00:43:00,39.0,38.0,-100.00,WNW,293,1.0,4.0,97,0.00,,,0.54,0.000000,,2013-01-17 05:43:00,
2013-01-17 00:53:00,39.0,38.0,-100.00,WNW,293,1.0,4.0,97,0.00,,,0.54,0.000000,,2013-01-17 05:53:00,
2013-01-17 01:03:00,39.0,38.0,-100.00,WNW,293,1.0,4.0,97,0.00,,,0.54,0.000000,,2013-01-17 06:03:00,
2013-01-17 01:12:00,39.0,38.0,-100.00,WNW,293,1.0,4.0,97,0.00,,,0.54,0.000000,,2013-01-17 06:12:00,
2013-01-17 01:33:00,40.0,39.0,-100.00,West,275,3.0,6.0,97,0.00,,,0.37,0.000000,,2013-01-17 06:33:00,
2013-01-17 01:42:00,40.0,39.0,-100.00,West,275,3.0,6.0,97,0.00,,,0.37,0.000000,,2013-01-17 06:42:00,
2013-01-17 01:53:00,40.0,39.0,-100.00,West,275,3.0,6.0,97,0.00,,,0.37,0.000000,,2013-01-17 06:53:00,
2013-01-17 02:02:00,40.0,39.0,-100.00,West,275,3.0,6.0,97,0.00,,,0.37,0.000000,,2013-01-17 07:02:00,
2013-01-17 02:12:00,40.0,39.0,-100.00,West,275,3.0,6.0,97,0.00,,,0.37,0.000000,,2013-01-17 07:12:00,
2013-01-17 02:33:00,42.0,34.0,-100.00,West,273,4.0,7.0,74,0.00,,,0.21,0.000000,,2013-01-17 07:33:00,
2013-01-17 02:43:00,42.0,34.0,-100.00,West,273,4.0,7.0,74,0.00,,,0.21,0.000000,,2013-01-17 07:43:00,
2013-01-17 02:53:00,42.0,34.0,-100.00,West,273,4.0,7.0,74,0.00,,,0.21,0.000000,,2013-01-17 07:53:00,
2013-01-17 03:02:00,42.0,34.0,-100.00,West,273,4.0,7.0,74,0.00,,,0.21,0.000000,,2013-01-17 08:02:00,
2013-01-17 03:12:00,42.0,34.0,-100.00,West,273,4.0,7.0,74,0.00,,,0.21,0.000000,,2013-01-17 08:12:00,
2013-01-17 03:32:00,42.0,31.0,-100.00,West,277,2.0,6.0,64,0.00,,,0.18,0.000000,,2013-01-17 08:32:00,
2013-01-17 03:43:00,42.0,31.0,-100.00,West,277,2.0,6.0,64,0.00,,,0.18,0.000000,,2013-01-17 08:43:00,
2013-01-17 03:53:00,42.0,31.0,-100.00,West,277,2.0,6.0,64,0.00,,,0.18,0.000000,,2013-01-17 08:53:00,
2013-01-17 04:03:00,42.0,31.0,-100.00,West,277,2.0,6.0,64,0.00,,,0.18,0.000000,,2013-01-17 09:03:00,
2013-01-17 04:12:00,42.0,31.0,-100.00,West,277,2.0,6.0,64,0.00,,,0.18,0.000000,,2013-01-17 09:12:00,
2013-01-17 04:33:00,42.0,27.0,-100.00,SW,220,2.0,5.0,56,0.00,,,0.17,0.000000,,2013-01-17 09:33:00,
2013-01-17 04:43:00,42.0,27.0,-100.00,SW,220,2.0,5.0,56,0.00,,,0.17,0.000000,,2013-01-17 09:43:00,
2013-01-17 04:53:00,42.0,27.0,-100.00,SW,220,2.0,5.0,56,0.00,,,0.17,0.000000,,2013-01-17 09:53:00,
2013-01-17 05:02:00,42.0,27.0,-100.00,SW,220,2.0,5.0,56,0.00,,,0.17,0.000000,,2013-01-17 10:02:00,
2013-01-17 05:12:00,42.0,27.0,-100.00,SW,220,2.0,5.0,56,0.00,,,0.17,0.000000,,2013-01-17 10:12:00,
2013-01-17 05:33:00,42.0,27.0,-100.00,West,268,2.0,7.0,55,0.00,,,0.16,0.000000,,2013-01-17 10:33:00,
2013-01-17 05:43:00,42.0,27.0,-100.00,West,268,2.0,7.0,55,0.00,,,0.16,0.000000,,2013-01-17 10:43:00,
2013-01-17 05:53:00,42.0,27.0,-100.00,West,268,2.0,7.0,55,0.00,,,0.16,0.000000,,2013-01-17 10:53:00,
2013-01-17 06:03:00,42.0,27.0,-100.00,West,268,2.0,7.0,55,0.00,,,0.16,0.000000,,2013-01-17 11:03:00,
2013-01-17 06:12:00,42.0,27.0,-100.00,West,268,2.0,7.0,55,0.00,,,0.16,0.000000,,2013-01-17 11:12:00,
2013-01-17 06:33:00,41.0,28.0,-100.00,NW,313,3.0,9.0,60,0.00,,,0.14,0.000000,,2013-01-17 11:33:00,
2013-01-17 06:43:00,41.0,28.0,-100.00,NW,313,3.0,9.0,60,0.00,,,0.14,0.000000,,2013-01-17 11:43:00,
2013-01-17 06:53:00,41.0,28.0,-100.00,NW,313,3.0,9.0,60,0.00,,,0.14,0.000000,,2013-01-17 11:53:00,
2013-01-17 07:03:00,41.0,28.0,-100.00,NW,313,3.0,9.0,60,0.00,,,0.14,0.000000,,2013-01-17 12:03:00,
2013-01-17 07:12:00,41.0,28.0,-100.00,NW,313,3.0,9.0,60,0.00,,,0.14,0.000000,,2013-01-17 12:12:00,
2013-01-17 07:33:00,40.0,26.0,-100.00,NNW,343,2.0,10.0,58,0.00,,,0.11,0.000000,,2013-01-17 12:33:00,
2013-01-17 07:43:00,40.0,26.0,-100.00,NNW,343,2.0,10.0,58,0.00,,,0.11,0.000000,,2013-01-17 12:43:00,
2013-01-17 07:53:00,40.0,26.0,-100.00,NNW,343,2.0,10.0,58,0.00,,,0.11,0.000000,,2013-01-17 12:53:00,
2013-01-17 08:03:00,40.0,26.0,-100.00,NNW,343,2.0,10.0,58,0.00,,,0.11,0.000000,,2013-01-17 13:03:00,
2013-01-17 08:12:00,40.0,26.0,-100.00,NNW,343,2.0,10.0,58,0.00,,,0.11,0.000000,,2013-01-17 13:12:00,
2013-01-17 08:13:00,40.0,30.0,-100.00,WNW,293,3.0,7.0,66,0.00,,,0.06,22.000000,,2013-01-17 13:13:00,
2013-01-17 08:33:00,40.0,30.0,-100.00,WNW,293,3.0,7.0,66,0.00,,,0.06,22.000000,,2013-01-17 13:33:00,
2013-01-17 08:43:00,40.0,30.0,-100.00,WNW,293,3.0,7.0,66,0.00,,,0.06,22.000000,,2013-01-17 13:43:00,
2013-01-17 08:53:00,40.0,30.0,-100.00,WNW,293,3.0,7.0,66,0.00,,,0.06,22.000000,,2013-01-17 13:53:00,
2013-01-17 09:03:00,40.0,30.0,-100.00,WNW,293,3.0,7.0,66,0.00,,,0.06,22.000000,,2013-01-17 14:03:00,
2013-01-17 09:33:00,41.0,31.0,-100.00,WNW,298,4.0,9.0,68,0.00,,,0.03,54.000000,,2013-01-17 14:33:00,
2013-01-17 09:43:00,41.0,31.0,-100.00,WNW,298,4.0,9.0,68,0.00,,,0.03,54.000000,,2013-01-17 14:43:00,
2013-01-17 09:53:00,41.0,31.0,-100.00,WNW,298,4.0,9.0,68,0.00,,,0.03,54.000000,,2013-01-17 14:53:00,
2013-01-17 10:03:00,41.0,31.0,-100.00,WNW,298,4.0,9.0,68,0.00,,,0.03,54.000000,,2013-01-17 15:03:00,
2013-01-17 10:12:00,41.0,31.0,-100.00,WNW,298,4.0,9.0,68,0.00,,,0.03,54.000000,,2013-01-17 15:12:00,
2013-01-17 10:33:00,42.0,32.0,-100.00,WNW,303,5.0,9.0,67,0.00,,,0.02,117.000000,,2013-01-17 15:33:00,
2013-01-17 10:43:00,42.0,32.0,-100.00,WNW,303,5.0,9.0,67,0.00,,,0.02,117.000000,,2013-01-17 15:43:00,
2013-01-17 10:53:00,42.0,32.0,-100.00,WNW,303,5.0,9.0,67,0.00,,,0.02,117.000000,,2013-01-17 15:53:00,
2013-01-17 11:03:00,42.0,32.0,-100.00,WNW,303,5.0,9.0,67,0.00,,,0.02,117.000000,,2013-01-17 16:03:00,
2013-01-17 11:12:00,42.0,32.0,-100.00,WNW,303,5.0,9.0,67,0.00,,,0.02,117.000000,,2013-01-17 16:12:00,
2013-01-17 11:13:00,42.0,30.0,-100.00,WNW,296,5.0,9.0,63,0.00,,,0.01,160.000000,,2013-01-17 16:13:00,
2013-01-17 11:34:00,42.0,30.0,-100.00,WNW,296,5.0,9.0,63,0.00,,,0.01,160.000000,,2013-01-17 16:34:00,
2013-01-17 11:44:00,42.0,30.0,-100.00,WNW,296,5.0,9.0,63,0.00,,,0.01,160.000000,,2013-01-17 16:44:00,
2013-01-17 11:53:00,42.0,30.0,-100.00,WNW,296,5.0,9.0,63,0.00,,,0.01,160.000000,,2013-01-17 16:53:00,
2013-01-17 12:03:00,42.0,30.0,-100.00,WNW,296,5.0,9.0,63,0.00,,,0.01,160.000000,,2013-01-17 17:03:00,
2013-01-17 12:33:00,41.0,31.0,-100.00,NNW,338,4.0,11.0,66,0.00,,,0.01,90.000000,,2013-01-17 17:33:00,
2013-01-17 12:43:00,41.0,31.0,-100.00,NNW,338,4.0,11.0,66,0.00,,,0.01,90.000000,,2013-01-17 17:43:00,
2013-01-17 12:54:00,41.0,31.0,-100.00,NNW,338,4.0,11.0,66,0.00,,,0.01,90.000000,,2013-01-17 17:54:00,
2013-01-17 13:04:00,41.0,31.0,-100.00,NNW,338,4.0,11.0,66,0.00,,,0.01,90.000000,,2013-01-17 18:04:00,
2013-01-17 13:12:00,41.0,31.0,-100.00,NNW,338,4.0,11.0,66,0.00,,,0.01,90.000000,,2013-01-17 18:12:00,
2013-01-17 13:13:00,42.0,32.0,-100.00,NW,323,3.0,11.0,67,0.00,,,0.01,114.000000,,2013-01-17 18:13:00,
2013-01-17 13:34:00,42.0,32.0,-100.00,NW,323,3.0,11.0,67,0.00,,,0.01,114.000000,,2013-01-17 18:34:00,
2013-01-17 13:44:00,42.0,32.0,-100.00,NW,323,3.0,11.0,67,0.00,,,0.01,114.000000,,2013-01-17 18:44:00,
2013-01-17 13:54:00,42.0,32.0,-100.00,NW,323,3.0,11.0,67,0.00,,,0.01,114.000000,,2013-01-17 18:54:00,
2013-01-17 14:03:00,42.0,32.0,-100.00,NW,323,3.0,11.0,67,0.00,,,0.01,114.000000,,2013-01-17 19:03:00,
2013-01-17 14:13:00,42.0,30.0,-100.00,North,351,4.0,8.0,62,0.00,,,0.00,97.000000,,2013-01-17 19:13:00,
2013-01-17 14:43:00,42.0,30.0,-100.00,North,351,4.0,8.0,62,0.00,,,0.00,97.000000,,2013-01-17 19:43:00,
2013-01-17 14:54:00,42.0,30.0,-100.00,North,351,4.0,8.0,62,0.00,,,0.00,97.000000,,2013-01-17 19:54:00,
2013-01-17 15:03:00,42.0,30.0,-100.00,North,351,4.0,8.0,62,0.00,,,0.00,97.000000,,2013-01-17 20:03:00,
2013-01-17 15:13:00,41.0,31.0,-100.00,NNW,331,2.0,7.0,67,0.00,,,0.00,41.000000,,2013-01-17 20:13:00,
2013-01-17 15:43:00,41.0,31.0,-100.00,NNW,331,2.0,7.0,67,0.00,,,0.00,41.000000,,2013-01-17 20:43:00,
2013-01-17 15:54:00,41.0,31.0,-100.00,NNW,331,2.0,7.0,67,0.00,,,0.00,41.000000,,2013-01-17 20:54:00,
2013-01-17 16:03:00,41.0,31.0,-100.00,NNW,331,2.0,7.0,67,0.00,,,0.00,41.000000,,2013-01-17 21:03:00,
2013-01-17 16:34:00,40.0,30.0,-100.00,NW,319,1.0,3.0,68,0.00,,,0.00,20.000000,,2013-01-17 21:34:00,
2013-01-17 16:43:00,40.0,30.0,-100.00,NW,319,1.0,3.0,68,0.00,,,0.00,20.000000,,2013-01-17 21:43:00,
2013-01-17 16:53:00,40.0,30.0,-100.00,NW,319,1.0,3.0,68,0.00,,,0.00,20.000000,,2013-01-17 21:53:00,
2013-01-17 17:04:00,40.0,30.0,-100.00,NW,319,1.0,3.0,68,0.00,,,0.00,20.000000,,2013-01-17 22:04:00,
2013-01-17 17:12:00,40.0,30.0,-100.00,NW,319,1.0,3.0,68,0.00,,,0.00,20.000000,,2013-01-17 22:12:00,
2013-01-17 17:33:00,39.0,30.0,-100.00,WSW,246,1.0,2.0,69,0.00,,,0.00,4.000000,,2013-01-17 22:33:00,
2013-01-17 17:43:00,39.0,30.0,-100.00,WSW,246,1.0,2.0,69,0.00,,,0.00,4.000000,,2013-01-17 22:43:00,
2013-01-17 17:53:00,39.0,30.0,-100.00,WSW,246,1.0,2.0,69,0.00,,,0.00,4.000000,,2013-01-17 22:53:00,
2013-01-17 18:03:00,39.0,30.0,-100.00,WSW,246,1.0,2.0,69,0.00,,,0.00,4.000000,,2013-01-17 23:03:00,
2013-01-17 18:12:00,39.0,30.0,-100.00,WSW,246,1.0,2.0,69,0.00,,,0.00,4.000000,,2013-01-17 23:12:00,
2013-01-17 18:43:00,38.0,32.0,-100.00,West,280,1.0,3.0,80,0.00,,,0.00,0.000000,,2013-01-17 23:43:00,
2013-01-17 18:53:00,38.0,32.0,-100.00,West,280,1.0,3.0,80,0.00,,,0.00,0.000000,,2013-01-17 23:53:00,
2013-01-17 19:03:00,38.0,32.0,-100.00,West,280,1.0,3.0,80,0.00,,,0.00,0.000000,,2013-01-18 00:03:00,
2013-01-17 19:12:00,38.0,32.0,-100.00,West,280,1.0,3.0,80,0.00,,,0.00,0.000000,,2013-01-18 00:12:00,
2013-01-17 19:13:00,38.0,32.0,-100.00,SW,232,1.0,3.0,79,0.00,,,0.00,0.000000,,2013-01-18 00:13:00,
2013-01-17 19:43:00,38.0,32.0,-100.00,SW,232,1.0,3.0,79,0.00,,,0.00,0.000000,,2013-01-18 00:43:00,
2013-01-17 19:53:00,38.0,32.0,-100.00,SW,232,1.0,3.0,79,0.00,,,0.00,0.000000,,2013-01-18 00:53:00,
2013-01-17 20:03:00,38.0,32.0,-100.00,SW,232,1.0,3.0,79,0.00,,,0.00,0.000000,,2013-01-18 01:03:00,
2013-01-17 20:33:00,36.0,31.0,-100.00,NNE,15,0.0,0.0,83,0.00,,,0.00,0.000000,,2013-01-18 01:33:00,
2013-01-17 20:43:00,36.0,31.0,-100.00,NNE,15,0.0,0.0,83,0.00,,,0.00,0.000000,,2013-01-18 01:43:00,
2013-01-17 20:53:00,36.0,31.0,-100.00,NNE,15,0.0,0.0,83,0.00,,,0.00,0.000000,,2013-01-18 01:53:00,
2013-01-17 21:03:00,36.0,31.0,-100.00,NNE,15,0.0,0.0,83,0.00,,,0.00,0.000000,,2013-01-18 02:03:00,
2013-01-17 21:12:00,36.0,31.0,-100.00,NNE,15,0.0,0.0,83,0.00,,,0.00,0.000000,,2013-01-18 02:12:00,
2013-01-17 21:43:00,36.0,33.0,-100.00,West,279,2.0,2.0,87,0.00,,,0.00,0.000000,,2013-01-18 02:43:00,
2013-01-17 21:53:00,36.0,33.0,-100.00,West,279,2.0,2.0,87,0.00,,,0.00,0.000000,,2013-01-18 02:53:00,
2013-01-17 22:03:00,36.0,33.0,-100.00,West,279,2.0,2.0,87,0.00,,,0.00,0.000000,,2013-01-18 03:03:00,
2013-01-17 22:12:00,36.0,33.0,-100.00,West,279,2.0,2.0,87,0.00,,,0.00,0.000000,,2013-01-18 03:12:00,
2013-01-17 22:33:00,36.0,32.0,-100.00,NW,307,2.0,2.0,86,0.00,,,0.00,0.000000,,2013-01-18 03:33:00,
2013-01-17 22:43:00,36.0,32.0,-100.00,NW,307,2.0,2.0,86,0.00,,,0.00,0.000000,,2013-01-18 03:43:00,
2013-01-17 22:53:00,36.0,32.0,-100.00,NW,307,2.0,2.0,86,0.00,,,0.00,0.000000,,2013-01-18 03:53:00,
2013-01-17 23:02:00,36.0,32.0,-100.00,NW,307,2.0,2.0,86,0.00,,,0.00,0.000000,,2013-01-18 04:02:00,
2013-01-17 23:12:00,36.0,32.0,-100.00,NW,307,2.0,2.0,86,0.00,,,0.00,0.000000,,2013-01-18 04:12:00,
2013-01-17 23:33:00,36.0,32.0,-100.00,NW,309,2.0,3.0,85,0.00,,,0.00,0.000000,,2013-01-18 04:33:00,
2013-01-17 23:43:00,36.0,32.0,-100.00,NW,309,2.0,3.0,85,0.00,,,0.00,0.000000,,2013-01-18 04:43:00,
2013-01-17 23:53:00,36.0,32.0,-100.00,NW,309,2.0,3.0,85,0.00,,,0.00,0.000000,,2013-01-18 04:53:00,